createdAt,value
2023-04-15T00:01:01.485Z,8.44
2023-04-15T00:03:30.989Z,8.41
2023-04-15T00:06:00.511Z,8.41
2023-04-15T00:08:33.356Z,8.40
2023-04-15T00:11:04.241Z,8.43
2023-04-15T00:13:36.342Z,8.40
2023-04-15T00:16:04.600Z,8.39
2023-04-15T00:18:32.831Z,8.38
2023-04-15T00:21:00.760Z,8.37
2023-04-15T00:23:28.741Z,8.35
2023-04-15T00:25:57.377Z,8.34
2023-04-15T00:28:29.877Z,8.31
2023-04-15T00:31:00.796Z,8.26
2023-04-15T00:33:31.465Z,8.25
2023-04-15T00:36:00.744Z,8.22
2023-04-15T00:38:28.894Z,8.17
2023-04-15T00:40:59.056Z,8.14
2023-04-15T00:43:28.508Z,8.19
2023-04-15T00:45:57.580Z,8.26
2023-04-15T00:48:25.683Z,8.30
2023-04-15T00:50:53.886Z,8.37
2023-04-15T00:53:22.294Z,8.44
2023-04-15T00:55:50.482Z,8.49
2023-04-15T00:58:18.613Z,8.55
2023-04-15T01:00:47.011Z,8.59
2023-04-15T01:03:16.690Z,8.60
2023-04-15T01:05:46.498Z,8.66
2023-04-15T01:08:14.996Z,8.71
2023-04-15T01:10:43.155Z,8.70
2023-04-15T01:13:11.793Z,8.73
2023-04-15T01:15:41.576Z,8.74
2023-04-15T01:18:09.794Z,8.78
2023-04-15T01:20:39.110Z,8.84
2023-04-15T01:23:07.500Z,8.85
2023-04-15T01:25:35.786Z,8.92
2023-04-15T01:28:05.208Z,8.89
2023-04-15T01:30:36.532Z,8.87
2023-04-15T01:33:04.628Z,8.86
2023-04-15T01:35:33.225Z,8.88
2023-04-15T01:38:07.721Z,8.92
2023-04-15T01:40:35.823Z,8.94
2023-04-15T01:43:04.149Z,8.93
2023-04-15T01:45:32.534Z,8.97
2023-04-15T01:48:01.021Z,8.95
2023-04-15T01:50:29.167Z,8.92
2023-04-15T01:52:57.383Z,8.93
2023-04-15T01:55:25.593Z,8.94
2023-04-15T01:57:53.560Z,8.95
2023-04-15T02:00:23.439Z,8.94
2023-04-15T02:02:54.078Z,8.95
2023-04-15T02:05:22.121Z,8.93
2023-04-15T02:07:50.409Z,8.94
2023-04-15T02:10:18.675Z,8.94
2023-04-15T02:12:46.799Z,8.97
2023-04-15T02:15:15.265Z,8.98
2023-04-15T02:17:48.507Z,8.97
2023-04-15T02:20:19.116Z,8.98
2023-04-15T02:22:48.650Z,9.02
2023-04-15T02:25:21.362Z,9.03
2023-04-15T02:27:50.235Z,9.05
2023-04-15T02:30:18.560Z,9.07
2023-04-15T02:32:46.629Z,9.10
2023-04-15T02:35:14.707Z,9.10
2023-04-15T02:37:45.908Z,9.13
2023-04-15T02:40:14.081Z,9.15
2023-04-15T02:42:42.835Z,9.15
2023-04-15T02:45:13.095Z,9.19
2023-04-15T02:47:44.178Z,9.20
2023-04-15T02:50:13.273Z,9.25
2023-04-15T02:52:42.973Z,9.31
2023-04-15T02:55:11.005Z,9.36
2023-04-15T02:57:39.509Z,9.40
2023-04-15T03:00:12.280Z,9.39
2023-04-15T03:02:43.613Z,9.40
2023-04-15T03:05:12.952Z,9.40
2023-04-15T03:07:42.867Z,9.43
2023-04-15T03:10:12.049Z,9.44
2023-04-15T03:12:41.011Z,9.43
2023-04-15T03:15:10.256Z,9.44
2023-04-15T03:17:41.419Z,9.49
2023-04-15T03:20:10.534Z,9.51
2023-04-15T03:22:38.654Z,9.57
2023-04-15T03:25:07.057Z,9.57
2023-04-15T03:27:35.043Z,9.61
2023-04-15T03:30:04.207Z,9.63
2023-04-15T03:32:33.862Z,9.63
2023-04-15T03:35:01.836Z,9.64
2023-04-15T03:37:29.893Z,9.66
2023-04-15T03:39:58.129Z,9.73
2023-04-15T03:42:26.224Z,9.72
2023-04-15T03:44:54.277Z,9.75
2023-04-15T03:47:22.361Z,9.74
2023-04-15T03:49:50.569Z,9.70
2023-04-15T03:52:18.674Z,9.71
2023-04-15T03:54:48.010Z,9.74
2023-04-15T03:57:15.957Z,9.74
2023-04-15T03:59:44.243Z,9.75
2023-04-15T04:02:12.353Z,9.75
2023-04-15T04:04:40.808Z,9.78
2023-04-15T04:07:08.839Z,9.78
2023-04-15T04:09:39.380Z,9.79
2023-04-15T04:12:07.367Z,9.83
2023-04-15T04:14:35.416Z,9.84
2023-04-15T04:17:03.609Z,9.83
2023-04-15T04:19:31.648Z,9.83
2023-04-15T04:21:59.718Z,9.86
2023-04-15T04:24:27.752Z,9.85
2023-04-15T04:26:57.432Z,9.83
2023-04-15T04:29:25.683Z,9.87
2023-04-15T04:31:53.683Z,9.87
2023-04-15T04:34:21.903Z,9.90
2023-04-15T04:36:49.962Z,9.92
2023-04-15T04:39:17.960Z,9.95
2023-04-15T04:41:46.467Z,9.96
2023-04-15T04:44:14.765Z,9.97
2023-04-15T04:46:43.011Z,9.96
2023-04-15T04:49:10.979Z,10.00
2023-04-15T04:51:38.984Z,10.03
2023-04-15T04:54:06.937Z,10.05
2023-04-15T04:56:34.920Z,10.05
2023-04-15T04:59:03.072Z,10.06
2023-04-15T05:01:31.895Z,10.08
2023-04-15T05:04:00.429Z,10.10
2023-04-15T05:06:31.803Z,10.08
2023-04-15T05:09:01.970Z,10.09
2023-04-15T05:11:30.196Z,10.10
2023-04-15T05:13:59.793Z,10.12
2023-04-15T05:16:28.304Z,10.15
2023-04-15T05:18:56.974Z,10.17
2023-04-15T05:21:25.034Z,10.18
2023-04-15T05:23:56.110Z,10.17
2023-04-15T05:26:24.589Z,10.19
2023-04-15T05:28:52.573Z,10.16
2023-04-15T05:31:20.724Z,10.21
2023-04-15T05:33:48.747Z,10.21
2023-04-15T05:36:16.677Z,10.23
2023-04-15T05:38:44.623Z,10.18
2023-04-15T05:41:13.511Z,10.19
2023-04-15T05:43:42.199Z,10.19
2023-04-15T05:46:10.215Z,10.21
2023-04-15T05:48:38.265Z,10.17
2023-04-15T05:51:07.162Z,10.13
2023-04-15T05:53:35.112Z,10.05
2023-04-15T05:56:03.223Z,10.04
2023-04-15T05:58:31.644Z,9.98
2023-04-15T06:01:00.140Z,9.84
2023-04-15T06:03:28.826Z,9.66
2023-04-15T06:05:57.016Z,9.53
2023-04-15T06:08:25.116Z,9.48
2023-04-15T06:10:53.266Z,9.46
2023-04-15T06:13:21.250Z,9.40
2023-04-15T06:15:49.615Z,9.36
2023-04-15T06:18:17.687Z,9.34
2023-04-15T06:20:46.579Z,9.32
2023-04-15T06:23:14.580Z,9.30
2023-04-15T06:25:42.593Z,9.27
2023-04-15T06:28:11.307Z,9.22
2023-04-15T06:30:47.355Z,9.20
2023-04-15T06:33:15.636Z,9.21
2023-04-15T06:35:44.291Z,9.18
2023-04-15T06:38:12.309Z,9.18
2023-04-15T06:40:40.357Z,9.21
2023-04-15T06:43:11.429Z,9.23
2023-04-15T06:45:39.628Z,9.23
2023-04-15T06:48:08.251Z,9.22
2023-04-15T06:50:36.434Z,9.27
2023-04-15T06:53:04.889Z,9.29
2023-04-15T06:55:34.674Z,9.31
2023-04-15T06:58:03.245Z,9.30
2023-04-15T07:00:31.455Z,9.30
2023-04-15T07:03:06.481Z,9.35
2023-04-15T07:05:35.222Z,9.38
2023-04-15T07:08:03.814Z,9.39
2023-04-15T07:10:32.149Z,9.39
2023-04-15T07:13:01.227Z,9.38
2023-04-15T07:15:31.082Z,9.34
2023-04-15T07:17:59.272Z,9.31
2023-04-15T07:20:27.481Z,9.37
2023-04-15T07:22:56.025Z,9.34
2023-04-15T07:25:24.160Z,9.32
2023-04-15T07:28:04.388Z,9.30
2023-04-15T07:30:35.009Z,9.21
2023-04-15T07:33:04.074Z,9.17
2023-04-15T07:35:32.208Z,9.13
2023-04-15T07:38:03.658Z,9.12
2023-04-15T07:40:32.279Z,9.14
2023-04-15T07:43:00.442Z,9.14
2023-04-15T07:45:28.689Z,9.11
2023-04-15T07:47:56.959Z,9.13
2023-04-15T07:50:25.247Z,9.09
2023-04-15T07:52:54.321Z,9.14
2023-04-15T07:55:23.644Z,9.20
2023-04-15T07:57:51.922Z,9.27
2023-04-15T08:00:20.246Z,9.32
2023-04-15T08:02:48.622Z,9.37
2023-04-15T08:05:17.373Z,9.37
2023-04-15T08:07:45.660Z,9.37
2023-04-15T08:10:14.600Z,9.40
2023-04-15T08:12:42.926Z,9.46
2023-04-15T08:15:25.721Z,9.50
2023-04-15T08:17:54.731Z,9.63
2023-04-15T08:20:23.729Z,9.66
2023-04-15T08:22:52.845Z,9.70
2023-04-15T08:25:21.381Z,9.71
2023-04-15T08:27:49.711Z,9.65
2023-04-15T08:30:18.388Z,9.70
2023-04-15T08:32:47.596Z,9.68
2023-04-15T08:35:16.525Z,9.69
2023-04-15T08:37:44.642Z,9.74
2023-04-15T08:40:12.883Z,9.74
2023-04-15T08:42:49.453Z,9.77
2023-04-15T08:45:18.508Z,9.83
2023-04-15T08:47:46.988Z,9.81
2023-04-15T08:50:15.411Z,9.80
2023-04-15T08:52:44.317Z,9.82
2023-04-15T08:55:12.807Z,9.90
2023-04-15T08:57:41.066Z,9.98
2023-04-15T09:00:11.478Z,10.04
2023-04-15T09:02:43.823Z,10.11
2023-04-15T09:05:13.050Z,10.20
2023-04-15T09:07:41.794Z,10.22
2023-04-15T09:10:10.194Z,10.18
2023-04-15T09:12:38.564Z,10.22
2023-04-15T09:15:07.971Z,10.18
2023-04-15T09:17:36.211Z,10.15
2023-04-15T09:20:11.468Z,10.20
2023-04-15T09:22:40.892Z,10.14
2023-04-15T09:25:15.395Z,10.06
2023-04-15T09:27:52.774Z,10.11
2023-04-15T09:30:20.965Z,10.16
2023-04-15T09:32:57.455Z,10.14
2023-04-15T09:35:26.385Z,10.20
2023-04-15T09:38:02.092Z,10.23
2023-04-15T09:40:38.093Z,10.31
2023-04-15T09:43:07.237Z,10.36
2023-04-15T09:45:39.758Z,10.41
2023-04-15T09:48:21.687Z,10.39
2023-04-15T09:50:50.189Z,10.43
2023-04-15T09:53:21.968Z,10.40
2023-04-15T09:55:59.770Z,10.45
2023-04-15T09:58:28.853Z,10.44
2023-04-15T10:00:58.034Z,10.49
2023-04-15T10:03:27.754Z,10.39
2023-04-15T10:05:57.317Z,10.48
2023-04-15T10:08:33.768Z,10.56
2023-04-15T10:11:05.372Z,10.57
2023-04-15T10:13:35.495Z,10.72
2023-04-15T10:16:07.215Z,10.80
2023-04-15T10:18:36.337Z,10.73
2023-04-15T10:21:04.393Z,10.77
2023-04-15T10:23:32.709Z,10.82
2023-04-15T10:26:00.878Z,10.79
2023-04-15T10:28:30.143Z,10.74
2023-04-15T10:30:58.191Z,10.68
2023-04-15T10:33:26.712Z,10.68
2023-04-15T10:35:55.642Z,10.71
2023-04-15T10:38:40.134Z,10.68
2023-04-15T10:41:14.960Z,10.75
2023-04-15T10:44:10.065Z,10.72
2023-04-15T10:46:45.543Z,10.67
2023-04-15T10:49:18.153Z,10.66
2023-04-15T10:51:47.760Z,10.74
2023-04-15T10:54:17.915Z,10.75
2023-04-15T10:56:46.227Z,10.79
2023-04-15T10:59:14.265Z,10.74
2023-04-15T11:02:02.239Z,10.67
2023-04-15T11:04:56.371Z,10.66
2023-04-15T11:07:37.192Z,10.55
2023-04-15T11:10:14.255Z,10.67
2023-04-15T11:12:42.231Z,10.69
2023-04-15T11:15:36.549Z,10.73
2023-04-15T11:18:28.536Z,10.71
2023-04-15T11:21:14.972Z,10.60
2023-04-15T11:23:47.154Z,10.55
2023-04-15T11:26:15.562Z,10.55
2023-04-15T11:28:45.241Z,10.54
2023-04-15T11:31:18.213Z,10.60
2023-04-15T11:33:55.665Z,10.61
2023-04-15T11:36:29.932Z,10.69
2023-04-15T11:38:59.410Z,10.66
2023-04-15T11:41:28.656Z,10.65
2023-04-15T11:43:56.801Z,10.51
2023-04-15T11:46:32.245Z,10.52
2023-04-15T11:49:02.665Z,10.49
2023-04-15T11:51:34.601Z,10.49
2023-04-15T11:54:03.051Z,10.30
2023-04-15T11:56:32.779Z,10.29
2023-04-15T11:59:00.958Z,10.30
2023-04-15T12:01:35.451Z,10.32
2023-04-15T12:04:04.729Z,10.34
2023-04-15T12:06:37.456Z,10.43
2023-04-15T12:09:15.491Z,10.44
2023-04-15T12:11:47.560Z,10.36
2023-04-15T12:14:15.871Z,10.39
2023-04-15T12:16:55.337Z,10.42
2023-04-15T12:19:32.810Z,10.50
2023-04-15T12:22:05.537Z,10.46
2023-04-15T12:24:34.665Z,10.38
2023-04-15T12:27:11.564Z,10.43
2023-04-15T12:29:40.836Z,10.56
2023-04-15T12:32:13.474Z,10.66
2023-04-15T12:34:45.748Z,10.68
2023-04-15T12:37:14.601Z,10.77
2023-04-15T12:39:44.227Z,10.82
2023-04-15T12:42:12.494Z,10.95
2023-04-15T12:44:40.899Z,11.07
2023-04-15T12:47:10.052Z,11.14
2023-04-15T12:49:38.600Z,11.13
2023-04-15T12:52:07.094Z,11.13
2023-04-15T12:54:36.672Z,11.26
2023-04-15T12:57:07.213Z,11.27
2023-04-15T12:59:36.729Z,11.17
2023-04-15T13:02:05.208Z,11.13
2023-04-15T13:04:34.365Z,11.07
2023-04-15T13:07:03.145Z,11.18
2023-04-15T13:09:31.558Z,11.31
2023-04-15T13:12:00.633Z,11.43
2023-04-15T13:14:29.017Z,11.46
2023-04-15T13:16:58.149Z,11.43
2023-04-15T13:19:27.004Z,11.34
2023-04-15T13:21:55.610Z,11.26
2023-04-15T13:24:23.725Z,11.11
2023-04-15T13:26:52.261Z,10.92
2023-04-15T13:29:20.648Z,10.80
2023-04-15T13:31:48.706Z,10.72
2023-04-15T13:34:16.861Z,10.66
2023-04-15T13:36:44.885Z,10.59
2023-04-15T13:39:13.132Z,10.54
2023-04-15T13:41:41.456Z,10.49
2023-04-15T13:44:09.496Z,10.45
2023-04-15T13:46:39.625Z,10.37
2023-04-15T13:49:07.668Z,10.31
2023-04-15T13:51:37.129Z,10.34
2023-04-15T13:54:05.635Z,10.29
2023-04-15T13:56:34.154Z,10.30
2023-04-15T13:59:03.331Z,10.31
2023-04-15T14:01:31.586Z,10.37
2023-04-15T14:03:59.824Z,10.37
2023-04-15T14:06:28.951Z,10.41
2023-04-15T14:08:57.121Z,10.42
2023-04-15T14:11:25.083Z,10.49
2023-04-15T14:13:53.045Z,10.61
2023-04-15T14:16:21.090Z,10.70
2023-04-15T14:18:49.437Z,10.77
2023-04-15T14:21:17.468Z,10.77
2023-04-15T14:23:46.516Z,10.66
2023-04-15T14:26:14.792Z,10.59
2023-04-15T14:28:45.159Z,10.48
2023-04-15T14:31:14.609Z,10.32
2023-04-15T14:33:42.693Z,10.21
2023-04-15T14:36:10.772Z,10.10
2023-04-15T14:38:40.269Z,10.03
2023-04-15T14:41:09.915Z,10.02
2023-04-15T14:43:39.489Z,9.97
2023-04-15T14:46:08.699Z,10.00
2023-04-15T14:48:36.968Z,10.10
2023-04-15T14:51:05.446Z,10.19
2023-04-15T14:53:33.496Z,10.34
2023-04-15T14:56:01.688Z,10.38
2023-04-15T14:58:29.700Z,10.46
2023-04-15T15:00:57.920Z,10.42
2023-04-15T15:03:26.005Z,10.35
2023-04-15T15:05:54.307Z,10.37
2023-04-15T15:08:22.442Z,10.33
2023-04-15T15:10:50.567Z,10.37
2023-04-15T15:13:19.276Z,10.34
2023-04-15T15:15:49.759Z,10.35
2023-04-15T15:18:19.528Z,10.32
2023-04-15T15:20:47.956Z,10.34
2023-04-15T15:23:16.350Z,10.35
2023-04-15T15:25:44.574Z,10.31
2023-04-15T15:28:12.685Z,10.22
2023-04-15T15:30:40.785Z,10.18
2023-04-15T15:33:08.994Z,10.05
2023-04-15T15:35:37.103Z,9.93
2023-04-15T15:38:05.521Z,9.87
2023-04-15T15:40:33.708Z,9.86
2023-04-15T15:43:02.076Z,9.88
2023-04-15T15:45:30.478Z,9.92
2023-04-15T15:47:59.515Z,9.92
2023-04-15T15:50:28.072Z,9.88
2023-04-15T15:52:56.183Z,9.92
2023-04-15T15:55:25.966Z,9.90
2023-04-15T15:57:54.523Z,9.90
2023-04-15T16:00:23.350Z,9.87
2023-04-15T16:03:05.085Z,9.81
2023-04-15T16:05:36.046Z,9.76
2023-04-15T16:08:04.192Z,9.72
2023-04-15T16:10:32.264Z,9.73
2023-04-15T16:13:00.566Z,9.67
2023-04-15T16:15:28.821Z,9.64
2023-04-15T16:17:57.199Z,9.63
2023-04-15T16:20:25.404Z,9.61
2023-04-15T16:22:53.880Z,9.62
2023-04-15T16:25:22.100Z,9.59
2023-04-15T16:28:00.862Z,9.57
2023-04-15T16:30:37.177Z,9.55
2023-04-15T16:33:05.919Z,9.57
2023-04-15T16:35:34.744Z,9.57
2023-04-15T16:38:03.334Z,9.55
2023-04-15T16:40:31.538Z,9.54
2023-04-15T16:42:59.502Z,9.55
2023-04-15T16:45:27.496Z,9.53
2023-04-15T16:47:56.912Z,9.52
2023-04-15T16:50:25.127Z,9.52
2023-04-15T16:52:54.781Z,9.54
2023-04-15T16:55:22.835Z,9.52
2023-04-15T16:58:01.573Z,9.49
2023-04-15T17:00:31.911Z,9.54
2023-04-15T17:03:03.009Z,9.53
2023-04-15T17:05:31.518Z,9.50
2023-04-15T17:07:59.425Z,9.47
2023-04-15T17:10:27.768Z,9.47
2023-04-15T17:12:56.832Z,9.46
2023-04-15T17:15:25.102Z,9.46
2023-04-15T17:17:53.375Z,9.42
2023-04-15T17:20:21.381Z,9.41
2023-04-15T17:22:49.435Z,9.41
2023-04-15T17:25:17.834Z,9.39
2023-04-15T17:27:45.907Z,9.36
2023-04-15T17:30:13.861Z,9.33
2023-04-15T17:32:41.950Z,9.31
2023-04-15T17:35:10.236Z,9.28
2023-04-15T17:37:38.814Z,9.23
2023-04-15T17:40:08.742Z,9.17
2023-04-15T17:42:37.029Z,9.13
2023-04-15T17:45:05.783Z,9.10
2023-04-15T17:47:33.787Z,9.10
2023-04-15T17:50:01.834Z,9.09
2023-04-15T17:52:29.882Z,9.07
2023-04-15T17:54:57.841Z,9.08
2023-04-15T17:57:25.803Z,9.05
2023-04-15T17:59:53.805Z,9.06
2023-04-15T18:02:21.972Z,9.07
2023-04-15T18:04:50.437Z,9.03
2023-04-15T18:07:18.495Z,9.02
2023-04-15T18:09:46.560Z,9.07
2023-04-15T18:12:14.519Z,9.05
2023-04-15T18:14:42.542Z,9.05
2023-04-15T18:17:10.773Z,9.05
2023-04-15T18:19:38.741Z,9.06
2023-04-15T18:22:06.716Z,9.08
2023-04-15T18:24:34.918Z,9.11
2023-04-15T18:27:03.175Z,9.11
2023-04-15T18:29:31.422Z,9.08
2023-04-15T18:32:00.543Z,9.08
2023-04-15T18:34:29.712Z,9.05
2023-04-15T18:36:58.466Z,9.07
2023-04-15T18:39:27.620Z,9.07
2023-04-15T18:41:56.314Z,9.06
2023-04-15T18:44:24.401Z,9.06
2023-04-15T18:46:52.407Z,9.08
2023-04-15T18:49:20.383Z,9.07
2023-04-15T18:51:48.385Z,9.06
2023-04-15T18:54:16.641Z,9.03
2023-04-15T18:56:44.613Z,9.03
2023-04-15T18:59:28.411Z,9.01
2023-04-15T19:02:03.662Z,9.01
2023-04-15T19:04:31.941Z,9.01
2023-04-15T19:07:00.011Z,9.01
2023-04-15T19:09:29.023Z,8.99
2023-04-15T19:11:57.827Z,9.00
2023-04-15T19:14:26.084Z,8.99
2023-04-15T19:16:54.112Z,8.96
2023-04-15T19:19:22.199Z,8.97
2023-04-15T19:21:50.574Z,8.96
2023-04-15T19:24:18.704Z,8.94
2023-04-15T19:26:52.754Z,8.94
2023-04-15T19:29:22.079Z,8.93
2023-04-15T19:31:50.124Z,8.93
2023-04-15T19:34:18.057Z,8.93
2023-04-15T19:36:46.132Z,8.92
2023-04-15T19:39:14.838Z,8.91
2023-04-15T19:41:44.351Z,8.90
2023-04-15T19:44:15.519Z,8.90
2023-04-15T19:46:45.062Z,8.91
2023-04-15T19:49:13.192Z,8.91
2023-04-15T19:51:41.667Z,8.89
2023-04-15T19:54:09.657Z,8.88
2023-04-15T19:56:37.655Z,8.88
2023-04-15T19:59:06.009Z,8.87
2023-04-15T20:01:34.108Z,8.86
2023-04-15T20:04:04.209Z,8.87
2023-04-15T20:06:32.761Z,8.85
2023-04-15T20:09:01.093Z,8.85
2023-04-15T20:12:09.622Z,8.86
2023-04-15T20:14:17.935Z,8.83
2023-04-15T20:16:46.098Z,8.83
2023-04-15T20:19:14.102Z,8.83
2023-04-15T20:21:42.190Z,8.82
2023-04-15T20:24:10.439Z,8.82
2023-04-15T20:26:38.608Z,8.79
2023-04-15T20:29:06.713Z,8.79
2023-04-15T20:31:35.072Z,8.80
2023-04-15T20:34:03.176Z,8.79
2023-04-15T20:36:32.104Z,8.78
2023-04-15T20:39:00.286Z,8.80
2023-04-15T20:41:28.336Z,8.77
2023-04-15T20:43:56.382Z,8.80
2023-04-15T20:46:26.596Z,8.83
2023-04-15T20:48:56.117Z,8.78
2023-04-15T20:51:24.187Z,8.78
2023-04-15T20:53:52.378Z,8.76
2023-04-15T20:56:20.451Z,8.74
2023-04-15T20:58:48.387Z,8.73
2023-04-15T21:01:16.505Z,8.73
2023-04-15T21:03:44.647Z,8.72
2023-04-15T21:06:13.240Z,8.72
2023-04-15T21:08:41.544Z,8.69
2023-04-15T21:11:09.576Z,8.65
2023-04-15T21:13:37.929Z,8.64
2023-04-15T21:16:06.509Z,8.62
2023-04-15T21:18:34.740Z,8.59
2023-04-15T21:21:02.960Z,8.58
2023-04-15T21:23:35.952Z,8.56
2023-04-15T21:26:04.021Z,8.54
2023-04-15T21:28:32.796Z,8.53
2023-04-15T21:31:00.953Z,8.52
2023-04-15T21:33:28.999Z,8.50
2023-04-15T21:35:56.974Z,8.53
2023-04-15T21:38:25.051Z,8.53
2023-04-15T21:40:52.960Z,8.53
2023-04-15T21:43:24.266Z,8.52
2023-04-15T21:46:21.821Z,8.52
2023-04-15T21:48:40.778Z,8.55
2023-04-15T21:51:09.025Z,8.54
2023-04-15T21:53:39.635Z,8.53
2023-04-15T21:56:10.489Z,8.53
2023-04-15T21:58:38.374Z,8.53
2023-04-15T22:01:06.744Z,8.52
2023-04-15T22:03:35.345Z,8.53
2023-04-15T22:06:03.911Z,8.52
2023-04-15T22:08:38.234Z,8.52
2023-04-15T22:11:28.407Z,8.52
2023-04-15T22:13:57.612Z,8.53
2023-04-15T22:16:26.868Z,8.53
2023-04-15T22:18:55.641Z,8.52
2023-04-15T22:21:23.791Z,8.52
2023-04-15T22:23:52.063Z,8.51
2023-04-15T22:26:19.983Z,8.51
2023-04-15T22:28:48.224Z,8.50
2023-04-15T22:31:16.368Z,8.49
2023-04-15T22:33:44.626Z,8.49
2023-04-15T22:36:15.231Z,8.48
2023-04-15T22:38:44.131Z,8.47
2023-04-15T22:41:12.118Z,8.47
2023-04-15T22:43:40.027Z,8.47
2023-04-15T22:46:08.149Z,8.47
2023-04-15T22:48:36.183Z,8.47
2023-04-15T22:51:05.167Z,8.49
2023-04-15T22:53:33.107Z,8.49
2023-04-15T22:56:01.092Z,8.46
2023-04-15T22:58:29.341Z,8.45
2023-04-15T23:00:58.865Z,8.42
2023-04-15T23:03:28.031Z,8.40
2023-04-15T23:05:56.624Z,8.38
2023-04-15T23:08:26.700Z,8.33
2023-04-15T23:10:54.923Z,8.32
2023-04-15T23:13:23.090Z,8.28
2023-04-15T23:15:51.988Z,8.24
2023-04-15T23:18:20.029Z,8.22
2023-04-15T23:20:48.007Z,8.18
2023-04-15T23:23:15.953Z,8.14
2023-04-15T23:25:43.933Z,8.14
2023-04-15T23:28:11.904Z,8.11
2023-04-15T23:30:39.904Z,8.07
2023-04-15T23:33:07.907Z,8.07
2023-04-15T23:35:36.021Z,8.05
2023-04-15T23:38:03.975Z,8.04
2023-04-15T23:40:31.861Z,8.00
2023-04-15T23:42:59.809Z,7.97
2023-04-15T23:45:27.790Z,7.96
2023-04-15T23:47:55.983Z,7.96
2023-04-15T23:50:23.923Z,7.92
2023-04-15T23:52:51.822Z,7.88
2023-04-15T23:55:19.751Z,7.89
2023-04-15T23:57:47.670Z,7.84
